McLain, Mississippi
Current Conditions -  °F | °C
As of 1:53 AM on Friday 24 Oct 2014 (Local Time) from KHBG Reporting Station
Clear Clear  
Wind Chill: 52°   Ceiling: Unl
Heat Index: 52°   Visibility: 10mi
Dew Point: 49°   Wind: 3mph
Humidity: 89%   Direction: 290°WNW
Pressure: 30.1"   Gusts: NA
Location:  31.11°N, 88.83°W
Report Text: KHBG 240653Z AUTO 29003KT 10SM CLR 11/09 A3010 RMK AO2 SLP190 T01110094
Loading
Personal Weather Stations






























Interactive Weather Map
Tropical Storm Tracking
New forecast layout! Learn more

10-Day Weather Forecast

Advertisements
Track Severe Weather on mobile